ISR43 LLBG-LLER
Flight info
| Callsign | ISR43 |
|---|---|
| Flight time | 0h 36m |
| Altitude | 16000 |
| Route | TOMAL J10 NURIT |
| Aircraft | A320/M-SDE3FGHIRWY/LB1 |
Departure
| Time | 2026-05-08 15:24 |
|---|---|
| Airport | Ben Gurion International Airport (LLBG) |
Arrival
| Time | 2026-05-08 16:01 |
|---|---|
| Airport | Ramon International Airport (LLER) |
| Time | Latitude | Longitude | Altitude | Speed | Heading |
|---|---|---|---|---|---|
| 2026-05-08 15:07 | 32.00304 | 34.87931 | 120 ft | 0 kts | 105° |
| 2026-05-08 15:14 | 32.00306 | 34.87920 | 120 ft | 2 kts | 105° |
| 2026-05-08 15:14 | 32.00310 | 34.87902 | 116 ft | 2 kts | 105° |
| 2026-05-08 15:15 | 32.00315 | 34.87881 | 116 ft | 3 kts | 105° |
| 2026-05-08 15:15 | 32.00321 | 34.87856 | 116 ft | 3 kts | 97° |
| 2026-05-08 15:15 | 32.00319 | 34.87829 | 117 ft | 3 kts | 55° |
| 2026-05-08 15:15 | 32.00303 | 34.87811 | 115 ft | 3 kts | 17° |
| 2026-05-08 15:16 | 32.00283 | 34.87800 | 119 ft | 3 kts | 32° |
| 2026-05-08 15:16 | 32.00279 | 34.87797 | 119 ft | 0 kts | 32° |
| 2026-05-08 15:19 | 32.00280 | 34.87798 | 120 ft | 1 kts | 32° |
| 2026-05-08 15:19 | 32.00305 | 34.87816 | 115 ft | 7 kts | 31° |
| 2026-05-08 15:19 | 32.00366 | 34.87860 | 118 ft | 13 kts | 31° |
| 2026-05-08 15:19 | 32.00461 | 34.87928 | 117 ft | 19 kts | 30° |
| 2026-05-08 15:20 | 32.00579 | 34.87928 | 119 ft | 17 kts | 348° |
| 2026-05-08 15:20 | 32.00644 | 34.87957 | 118 ft | 0 kts | 33° |
| 2026-05-08 15:20 | 32.00654 | 34.87965 | 117 ft | 5 kts | 33° |
| 2026-05-08 15:20 | 32.00717 | 34.88011 | 116 ft | 16 kts | 31° |
| 2026-05-08 15:21 | 32.00829 | 34.88093 | 118 ft | 22 kts | 32° |
| 2026-05-08 15:21 | 32.00972 | 34.88195 | 120 ft | 26 kts | 32° |
| 2026-05-08 15:21 | 32.01125 | 34.88316 | 119 ft | 21 kts | 28° |
| 2026-05-08 15:21 | 32.01255 | 34.88403 | 120 ft | 24 kts | 36° |
| 2026-05-08 15:22 | 32.01356 | 34.88515 | 120 ft | 20 kts | 47° |
| 2026-05-08 15:22 | 32.01446 | 34.88671 | 118 ft | 25 kts | 63° |
| 2026-05-08 15:22 | 32.01496 | 34.88841 | 120 ft | 16 kts | 79° |
| 2026-05-08 15:22 | 32.01519 | 34.88991 | 116 ft | 21 kts | 79° |
| 2026-05-08 15:23 | 32.01545 | 34.89132 | 120 ft | 14 kts | 66° |
| 2026-05-08 15:23 | 32.01642 | 34.89153 | 117 ft | 17 kts | 349° |
| 2026-05-08 15:23 | 32.01740 | 34.89114 | 119 ft | 13 kts | 307° |
| 2026-05-08 15:23 | 32.01741 | 34.89059 | 120 ft | 0 kts | 259° |
| 2026-05-08 15:24 | 32.01736 | 34.89026 | 120 ft | 15 kts | 259° |
| 2026-05-08 15:24 | 32.01684 | 34.88679 | 119 ft | 94 kts | 259° |
| 2026-05-08 15:24 | 32.01505 | 34.87522 | 264 ft | 177 kts | 258° |
| 2026-05-08 15:24 | 32.01256 | 34.85989 | 1137 ft | 208 kts | 259° |
| 2026-05-08 15:25 | 32.00919 | 34.84201 | 1970 ft | 240 kts | 255° |
| 2026-05-08 15:25 | 32.00476 | 34.82175 | 2892 ft | 263 kts | 253° |
| 2026-05-08 15:25 | 31.99952 | 34.80069 | 3938 ft | 279 kts | 247° |
| 2026-05-08 15:25 | 31.99103 | 34.77986 | 5139 ft | 274 kts | 231° |
| 2026-05-08 15:26 | 31.97999 | 34.76469 | 6125 ft | 230 kts | 219° |
| 2026-05-08 15:26 | 31.96366 | 34.75524 | 6302 ft | 294 kts | 189° |
| 2026-05-08 15:26 | 31.94224 | 34.75803 | 6663 ft | 330 kts | 159° |
| 2026-05-08 15:26 | 31.92293 | 34.77415 | 7178 ft | 354 kts | 133° |
| 2026-05-08 15:27 | 31.91216 | 34.79877 | 7812 ft | 338 kts | 104° |
| 2026-05-08 15:27 | 31.91143 | 34.82648 | 8571 ft | 342 kts | 89° |
| 2026-05-08 15:27 | 31.91291 | 34.85466 | 9358 ft | 347 kts | 88° |
| 2026-05-08 15:27 | 31.91443 | 34.88339 | 10138 ft | 355 kts | 89° |
| 2026-05-08 15:28 | 31.91597 | 34.91266 | 10882 ft | 361 kts | 88° |
| 2026-05-08 15:28 | 31.91766 | 34.94198 | 11609 ft | 367 kts | 86° |
| 2026-05-08 15:28 | 31.91999 | 34.97214 | 12377 ft | 373 kts | 85° |
| 2026-05-08 15:28 | 31.92122 | 35.00287 | 13157 ft | 379 kts | 94° |
| 2026-05-08 15:29 | 31.91628 | 35.03358 | 13951 ft | 385 kts | 109° |
| 2026-05-08 15:29 | 31.90499 | 35.06233 | 14623 ft | 392 kts | 122° |
| 2026-05-08 15:29 | 31.88707 | 35.08735 | 14907 ft | 412 kts | 141° |
| 2026-05-08 15:29 | 31.86214 | 35.10483 | 15000 ft | 421 kts | 161° |
| 2026-05-08 15:30 | 31.83397 | 35.11468 | 15016 ft | 423 kts | 166° |
| 2026-05-08 15:30 | 31.80556 | 35.12383 | 15014 ft | 424 kts | 167° |
| 2026-05-08 15:30 | 31.77710 | 35.13290 | 15013 ft | 424 kts | 167° |
| 2026-05-08 15:30 | 31.74901 | 35.14188 | 15013 ft | 424 kts | 166° |
| 2026-05-08 15:31 | 31.72055 | 35.15109 | 15011 ft | 424 kts | 166° |
| 2026-05-08 15:31 | 31.69217 | 35.16033 | 15010 ft | 423 kts | 166° |
| 2026-05-08 15:31 | 31.66376 | 35.16960 | 15005 ft | 424 kts | 166° |
| 2026-05-08 15:31 | 31.63532 | 35.17890 | 15006 ft | 424 kts | 166° |
| 2026-05-08 15:32 | 31.60697 | 35.18822 | 15007 ft | 423 kts | 166° |
| 2026-05-08 15:32 | 31.57864 | 35.19755 | 15005 ft | 423 kts | 166° |
| 2026-05-08 15:32 | 31.55025 | 35.20684 | 15002 ft | 423 kts | 166° |
| 2026-05-08 15:32 | 31.52191 | 35.21606 | 15005 ft | 423 kts | 166° |
| 2026-05-08 15:33 | 31.49353 | 35.22527 | 15006 ft | 423 kts | 166° |
| 2026-05-08 15:33 | 31.46516 | 35.23450 | 15005 ft | 423 kts | 166° |
| 2026-05-08 15:33 | 31.43680 | 35.24375 | 15002 ft | 423 kts | 166° |
| 2026-05-08 15:33 | 31.40851 | 35.25297 | 15001 ft | 423 kts | 166° |
| 2026-05-08 15:34 | 31.38014 | 35.26220 | 14999 ft | 422 kts | 166° |
| 2026-05-08 15:34 | 31.35185 | 35.27139 | 14996 ft | 422 kts | 166° |
| 2026-05-08 15:34 | 31.32385 | 35.28044 | 14997 ft | 422 kts | 166° |
| 2026-05-08 15:34 | 31.29556 | 35.28957 | 14997 ft | 422 kts | 166° |
| 2026-05-08 15:35 | 31.26721 | 35.29874 | 15001 ft | 422 kts | 166° |
| 2026-05-08 15:35 | 31.23891 | 35.30788 | 14996 ft | 422 kts | 166° |
| 2026-05-08 15:35 | 31.21055 | 35.31707 | 14993 ft | 422 kts | 166° |
| 2026-05-08 15:35 | 31.18228 | 35.32623 | 14994 ft | 422 kts | 166° |
| 2026-05-08 15:36 | 31.15392 | 35.33539 | 14993 ft | 426 kts | 166° |
| 2026-05-08 15:36 | 31.13489 | 35.34153 | 14978 ft | 431 kts | 166° |
| 2026-05-08 15:36 | 31.09616 | 35.35402 | 14978 ft | 433 kts | 166° |
| 2026-05-08 15:36 | 31.06663 | 35.36054 | 14975 ft | 431 kts | 175° |
| 2026-05-08 15:37 | 31.03673 | 35.36107 | 14981 ft | 429 kts | 186° |
| 2026-05-08 15:37 | 31.00746 | 35.35495 | 14985 ft | 428 kts | 195° |
| 2026-05-08 15:37 | 30.97847 | 35.34715 | 14982 ft | 427 kts | 194° |
| 2026-05-08 15:37 | 30.94951 | 35.33941 | 14982 ft | 428 kts | 194° |
| 2026-05-08 15:38 | 30.92050 | 35.33167 | 14980 ft | 428 kts | 194° |
| 2026-05-08 15:38 | 30.89149 | 35.32391 | 14976 ft | 428 kts | 194° |
| 2026-05-08 15:38 | 30.86247 | 35.31611 | 14976 ft | 428 kts | 194° |
| 2026-05-08 15:38 | 30.83345 | 35.30830 | 14868 ft | 428 kts | 195° |
| 2026-05-08 15:39 | 30.80503 | 35.30069 | 14653 ft | 407 kts | 195° |
| 2026-05-08 15:39 | 30.77852 | 35.29358 | 14446 ft | 386 kts | 195° |
| 2026-05-08 15:39 | 30.75243 | 35.28659 | 14235 ft | 376 kts | 195° |
| 2026-05-08 15:39 | 30.72742 | 35.27984 | 14034 ft | 373 kts | 195° |
| 2026-05-08 15:40 | 30.70191 | 35.27294 | 13819 ft | 371 kts | 195° |
| 2026-05-08 15:40 | 30.67678 | 35.26616 | 13593 ft | 369 kts | 195° |
| 2026-05-08 15:40 | 30.65214 | 35.25951 | 13363 ft | 367 kts | 195° |
| 2026-05-08 15:40 | 30.62733 | 35.25278 | 13126 ft | 365 kts | 195° |
| 2026-05-08 15:41 | 30.60283 | 35.24553 | 12904 ft | 363 kts | 197° |
| 2026-05-08 15:41 | 30.57855 | 35.23779 | 12674 ft | 360 kts | 197° |
| 2026-05-08 15:41 | 30.55450 | 35.22981 | 12446 ft | 358 kts | 197° |
| 2026-05-08 15:41 | 30.53061 | 35.22179 | 12223 ft | 357 kts | 197° |
| 2026-05-08 15:42 | 30.50682 | 35.21387 | 12003 ft | 355 kts | 197° |
| 2026-05-08 15:42 | 30.48307 | 35.20607 | 11778 ft | 354 kts | 196° |
| 2026-05-08 15:42 | 30.45946 | 35.19840 | 11557 ft | 352 kts | 196° |
| 2026-05-08 15:42 | 30.43592 | 35.19078 | 11339 ft | 350 kts | 196° |
| 2026-05-08 15:43 | 30.41250 | 35.18321 | 11124 ft | 348 kts | 196° |
| 2026-05-08 15:43 | 30.38920 | 35.17573 | 10904 ft | 346 kts | 195° |
| 2026-05-08 15:43 | 30.36603 | 35.16832 | 10691 ft | 345 kts | 195° |
| 2026-05-08 15:43 | 30.34292 | 35.16093 | 10476 ft | 343 kts | 195° |
| 2026-05-08 15:44 | 30.31996 | 35.15358 | 10266 ft | 342 kts | 195° |
| 2026-05-08 15:44 | 30.29702 | 35.14622 | 10058 ft | 341 kts | 195° |
| 2026-05-08 15:44 | 30.27423 | 35.13887 | 9846 ft | 339 kts | 194° |
| 2026-05-08 15:44 | 30.25154 | 35.13154 | 9619 ft | 338 kts | 194° |
| 2026-05-08 15:45 | 30.22895 | 35.12425 | 9374 ft | 336 kts | 194° |
| 2026-05-08 15:45 | 30.20694 | 35.11717 | 9158 ft | 319 kts | 194° |
| 2026-05-08 15:45 | 30.18607 | 35.11045 | 8931 ft | 305 kts | 194° |
| 2026-05-08 15:45 | 30.16574 | 35.10391 | 8708 ft | 301 kts | 194° |
| 2026-05-08 15:46 | 30.14556 | 35.09743 | 8480 ft | 301 kts | 194° |
| 2026-05-08 15:46 | 30.12539 | 35.09096 | 8256 ft | 301 kts | 194° |
| 2026-05-08 15:46 | 30.10523 | 35.08451 | 8035 ft | 301 kts | 194° |
| 2026-05-08 15:46 | 30.08509 | 35.07809 | 7816 ft | 300 kts | 194° |
| 2026-05-08 15:47 | 30.06508 | 35.07171 | 7598 ft | 294 kts | 194° |
| 2026-05-08 15:47 | 30.04571 | 35.06549 | 7379 ft | 284 kts | 194° |
| 2026-05-08 15:47 | 30.02696 | 35.05948 | 7116 ft | 276 kts | 194° |
| 2026-05-08 15:47 | 30.00868 | 35.05362 | 6937 ft | 268 kts | 194° |
| 2026-05-08 15:48 | 29.97317 | 35.04223 | 6659 ft | 266 kts | 194° |
| 2026-05-08 15:48 | 29.95532 | 35.03653 | 6515 ft | 266 kts | 194° |
| 2026-05-08 15:48 | 29.93756 | 35.03086 | 6374 ft | 265 kts | 194° |
| 2026-05-08 15:49 | 29.91979 | 35.02519 | 6228 ft | 265 kts | 194° |
| 2026-05-08 15:49 | 29.90775 | 35.02136 | 6126 ft | 266 kts | 194° |
| 2026-05-08 15:49 | 29.88987 | 35.01570 | 5974 ft | 267 kts | 194° |
| 2026-05-08 15:49 | 29.87192 | 35.01003 | 5825 ft | 268 kts | 195° |
| 2026-05-08 15:50 | 29.85391 | 35.00429 | 5676 ft | 269 kts | 195° |
| 2026-05-08 15:50 | 29.83609 | 34.99859 | 5532 ft | 270 kts | 195° |
| 2026-05-08 15:50 | 29.81798 | 34.99279 | 5385 ft | 271 kts | 195° |
| 2026-05-08 15:50 | 29.79980 | 34.98698 | 5238 ft | 272 kts | 195° |
| 2026-05-08 15:51 | 29.78154 | 34.98117 | 5091 ft | 273 kts | 196° |
| 2026-05-08 15:51 | 29.76319 | 34.97535 | 4943 ft | 274 kts | 195° |
| 2026-05-08 15:51 | 29.74471 | 34.96946 | 4804 ft | 277 kts | 196° |
| 2026-05-08 15:51 | 29.72617 | 34.96356 | 4655 ft | 277 kts | 195° |
| 2026-05-08 15:52 | 29.70755 | 34.95767 | 4507 ft | 277 kts | 196° |
| 2026-05-08 15:52 | 29.68896 | 34.95179 | 4361 ft | 277 kts | 195° |
| 2026-05-08 15:52 | 29.67044 | 34.94592 | 4207 ft | 276 kts | 196° |
| 2026-05-08 15:52 | 29.65193 | 34.94005 | 4084 ft | 276 kts | 195° |
| 2026-05-08 15:53 | 29.63337 | 34.93416 | 3960 ft | 275 kts | 196° |
| 2026-05-08 15:53 | 29.61493 | 34.92831 | 3842 ft | 274 kts | 196° |
| 2026-05-08 15:53 | 29.59677 | 34.92256 | 3715 ft | 265 kts | 197° |
| 2026-05-08 15:53 | 29.57907 | 34.91695 | 3597 ft | 264 kts | 196° |
| 2026-05-08 15:54 | 29.56146 | 34.91135 | 3477 ft | 262 kts | 195° |
| 2026-05-08 15:54 | 29.54409 | 34.90585 | 3353 ft | 255 kts | 196° |
| 2026-05-08 15:54 | 29.52684 | 34.90260 | 3234 ft | 253 kts | 173° |
| 2026-05-08 15:54 | 29.51114 | 34.91033 | 3112 ft | 242 kts | 134° |
| 2026-05-08 15:55 | 29.50358 | 34.92654 | 2984 ft | 228 kts | 92° |
| 2026-05-08 15:55 | 29.51791 | 34.95337 | 2671 ft | 201 kts | 24° |
| 2026-05-08 15:55 | 29.53094 | 34.95885 | 2438 ft | 199 kts | 14° |
| 2026-05-08 15:56 | 29.54409 | 34.96288 | 2243 ft | 196 kts | 12° |
| 2026-05-08 15:56 | 29.55680 | 34.96648 | 2168 ft | 179 kts | 12° |
| 2026-05-08 15:56 | 29.56826 | 34.96970 | 2105 ft | 161 kts | 11° |
| 2026-05-08 15:56 | 29.57874 | 34.97262 | 2100 ft | 151 kts | 12° |
| 2026-05-08 15:57 | 29.58881 | 34.97543 | 2110 ft | 148 kts | 12° |
| 2026-05-08 15:57 | 29.59876 | 34.97820 | 2109 ft | 146 kts | 11° |
| 2026-05-08 15:57 | 29.60861 | 34.98094 | 2124 ft | 146 kts | 11° |
| 2026-05-08 15:57 | 29.61848 | 34.98370 | 2055 ft | 146 kts | 10° |
| 2026-05-08 15:58 | 29.62800 | 34.98636 | 1891 ft | 139 kts | 12° |
| 2026-05-08 15:58 | 29.63740 | 34.98898 | 1730 ft | 140 kts | 12° |
| 2026-05-08 15:58 | 29.64636 | 34.99149 | 1557 ft | 125 kts | 12° |
| 2026-05-08 15:58 | 29.65446 | 34.99375 | 1389 ft | 114 kts | 13° |
| 2026-05-08 15:59 | 29.66222 | 34.99591 | 1246 ft | 115 kts | 9° |
| 2026-05-08 15:59 | 29.66987 | 34.99805 | 1088 ft | 112 kts | 12° |
| 2026-05-08 15:59 | 29.67722 | 35.00011 | 958 ft | 106 kts | 11° |
| 2026-05-08 15:59 | 29.68433 | 35.00209 | 823 ft | 105 kts | 13° |
| 2026-05-08 16:00 | 29.69162 | 35.00413 | 684 ft | 108 kts | 12° |
| 2026-05-08 16:00 | 29.69887 | 35.00621 | 566 ft | 108 kts | 16° |
| 2026-05-08 16:00 | 29.70622 | 35.00829 | 436 ft | 108 kts | 12° |
| 2026-05-08 16:00 | 29.71352 | 35.01031 | 317 ft | 108 kts | 13° |
| 2026-05-08 16:01 | 29.72014 | 35.01214 | 277 ft | 78 kts | 13° |
| 2026-05-08 16:01 | 29.72173 | 35.01256 | 276 ft | 13 kts | 14° |
| 2026-05-08 16:01 | 29.72334 | 35.01303 | 275 ft | 28 kts | 14° |
| 2026-05-08 16:01 | 29.72529 | 35.01365 | 270 ft | 31 kts | 15° |